createdAt,value
2023-01-07T00:01:06.493Z,101364.19
2023-01-07T00:03:33.770Z,101360.44
2023-01-07T00:06:05.515Z,101361.31
2023-01-07T00:08:33.656Z,101364.75
2023-01-07T00:11:08.580Z,101352.28
2023-01-07T00:13:36.104Z,101355.16
2023-01-07T00:16:11.250Z,101354.69
2023-01-07T00:18:38.187Z,101357.34
2023-01-07T00:21:07.191Z,101354.09
2023-01-07T00:23:35.566Z,101352.97
2023-01-07T00:26:04.714Z,101354.41
2023-01-07T00:28:33.824Z,101355.16
2023-01-07T00:31:01.655Z,101346.75
2023-01-07T00:33:28.386Z,101347.63
2023-01-07T00:36:08.408Z,101345.59
2023-01-07T00:38:35.815Z,101341.97
2023-01-07T00:41:02.907Z,101348.75
2023-01-07T00:43:29.665Z,101343.19
2023-01-07T00:45:56.191Z,101343.47
2023-01-07T00:48:23.889Z,101350.28
2023-01-07T00:50:51.912Z,101342.63
2023-01-07T00:53:18.868Z,101338.72
2023-01-07T00:55:45.371Z,101334.44
2023-01-07T00:58:15.826Z,101331.75
2023-01-07T01:00:42.833Z,101318.16
2023-01-07T01:03:11.814Z,101321.78
2023-01-07T01:05:39.090Z,101321.88
2023-01-07T01:08:06.182Z,101315.19
2023-01-07T01:10:32.694Z,101317.88
2023-01-07T01:13:00.191Z,101310.41
2023-01-07T01:15:26.803Z,101320.94
2023-01-07T01:17:53.609Z,101318.34
2023-01-07T01:20:20.501Z,101320.06
2023-01-07T01:22:47.079Z,101316.72
2023-01-07T01:25:14.103Z,101316.53
2023-01-07T01:27:40.608Z,101318.25
2023-01-07T01:30:07.717Z,101319.66
2023-01-07T01:32:36.800Z,101306.47
2023-01-07T01:35:03.381Z,101314.50
2023-01-07T01:37:29.792Z,101324.47
2023-01-07T01:39:57.372Z,101313.19
2023-01-07T01:42:25.177Z,101313.09
2023-01-07T01:44:58.033Z,101315.00
2023-01-07T01:47:52.533Z,101311.56
2023-01-07T01:50:41.376Z,101309.44
2023-01-07T01:53:13.499Z,101308.03
2023-01-07T01:55:49.064Z,101303.50
2023-01-07T01:58:28.062Z,101307.63
2023-01-07T02:00:55.403Z,101305.06
2023-01-07T02:03:24.423Z,101300.56
2023-01-07T02:05:51.162Z,101291.75
2023-01-07T02:08:22.003Z,101295.13
2023-01-07T02:11:00.925Z,101291.56
2023-01-07T02:13:56.534Z,101302.75
2023-01-07T02:16:51.145Z,101302.94
2023-01-07T02:19:28.361Z,101285.75
2023-01-07T02:22:05.695Z,101290.59
2023-01-07T02:24:46.381Z,101280.56
2023-01-07T02:27:21.463Z,101279.81
2023-01-07T02:30:04.094Z,101282.38
2023-01-07T02:32:54.198Z,101290.59
2023-01-07T02:35:38.682Z,101291.38
2023-01-07T02:38:20.685Z,101296.03
2023-01-07T02:41:17.199Z,101293.22
2023-01-07T02:43:55.018Z,101285.25
2023-01-07T02:46:33.564Z,101274.53
2023-01-07T02:49:04.245Z,101287.06
2023-01-07T02:51:35.815Z,101286.59
2023-01-07T02:54:02.992Z,101281.31
2023-01-07T02:57:06.534Z,101278.66
2023-01-07T02:59:58.138Z,101266.84
2023-01-07T03:03:02.697Z,101264.16
2023-01-07T03:05:40.012Z,101258.72
2023-01-07T03:08:26.137Z,101264.09
2023-01-07T03:11:01.673Z,101254.13
2023-01-07T03:13:51.932Z,101246.38
2023-01-07T03:16:25.939Z,101244.56
2023-01-07T03:19:07.140Z,101241.88
2023-01-07T03:21:35.928Z,101240.19
2023-01-07T03:24:02.762Z,101241.31
2023-01-07T03:26:37.907Z,101240.25
2023-01-07T03:29:07.049Z,101233.38
2023-01-07T03:31:36.525Z,101239.31
2023-01-07T03:34:06.548Z,101242.66
2023-01-07T03:36:37.799Z,101238.28
2023-01-07T03:39:07.113Z,101231.56
2023-01-07T03:41:52.124Z,101242.66
2023-01-07T03:44:18.560Z,101233.97
2023-01-07T03:46:45.168Z,101238.56
2023-01-07T03:49:11.981Z,101224.47
2023-01-07T03:51:38.566Z,101222.84
2023-01-07T03:54:05.136Z,101226.31
2023-01-07T03:56:31.792Z,101223.63
2023-01-07T03:58:58.161Z,101221.03
2023-01-07T04:01:24.632Z,101219.53
2023-01-07T04:03:51.264Z,101212.25
2023-01-07T04:06:17.621Z,101214.19
2023-01-07T04:08:44.150Z,101209.88
2023-01-07T04:11:11.002Z,101202.78
2023-01-07T04:13:38.082Z,101204.03
2023-01-07T04:16:04.882Z,101194.09
2023-01-07T04:18:31.489Z,101188.84
2023-01-07T04:20:57.869Z,101193.81
2023-01-07T04:23:24.484Z,101192.00
2023-01-07T04:25:52.567Z,101191.41
2023-01-07T04:28:22.254Z,101190.16
2023-01-07T04:30:48.769Z,101187.28
2023-01-07T04:33:15.188Z,101188.81
2023-01-07T04:35:41.713Z,101182.69
2023-01-07T04:38:08.261Z,101191.69
2023-01-07T04:40:34.669Z,101182.13
2023-01-07T04:43:02.114Z,101183.56
2023-01-07T04:45:29.950Z,101185.09
2023-01-07T04:47:58.028Z,101176.09
2023-01-07T04:50:25.086Z,101172.69
2023-01-07T04:52:51.982Z,101162.72
2023-01-07T04:55:18.721Z,101169.63
2023-01-07T04:57:46.481Z,101159.88
2023-01-07T05:00:14.405Z,101157.59
2023-01-07T05:02:41.808Z,101162.28
2023-01-07T05:05:10.695Z,101147.16
2023-01-07T05:07:38.263Z,101151.59
2023-01-07T05:10:06.303Z,101154.16
2023-01-07T05:12:36.776Z,101143.28
2023-01-07T05:15:06.494Z,101143.44
2023-01-07T05:17:35.395Z,101138.88
2023-01-07T05:20:05.028Z,101135.06
2023-01-07T05:22:31.584Z,101130.63
2023-01-07T05:24:57.943Z,101122.03
2023-01-07T05:27:26.396Z,101125.28
2023-01-07T05:29:52.856Z,101128.72
2023-01-07T05:32:19.322Z,101128.66
2023-01-07T05:34:45.773Z,101125.28
2023-01-07T05:37:12.553Z,101123.94
2023-01-07T05:39:40.672Z,101123.78
2023-01-07T05:42:07.922Z,101112.50
2023-01-07T05:44:34.465Z,101114.91
2023-01-07T05:47:00.899Z,101118.16
2023-01-07T05:49:27.311Z,101118.81
2023-01-07T05:51:53.669Z,101118.22
2023-01-07T05:54:20.024Z,101120.91
2023-01-07T05:56:46.373Z,101113.84
2023-01-07T05:59:12.770Z,101106.69
2023-01-07T06:01:39.108Z,101112.31
2023-01-07T06:04:05.628Z,101109.84
2023-01-07T06:06:31.977Z,101104.09
2023-01-07T06:08:58.354Z,101109.16
2023-01-07T06:11:24.775Z,101098.25
2023-01-07T06:13:51.191Z,101100.47
2023-01-07T06:16:17.655Z,101103.16
2023-01-07T06:18:44.041Z,101100.00
2023-01-07T06:21:10.459Z,101106.09
2023-01-07T06:23:37.168Z,101100.94
2023-01-07T06:26:03.630Z,101088.88
2023-01-07T06:28:30.004Z,101092.34
2023-01-07T06:30:56.387Z,101085.75
2023-01-07T06:33:22.817Z,101086.06
2023-01-07T06:35:49.210Z,101089.19
2023-01-07T06:38:15.612Z,101086.69
2023-01-07T06:40:42.039Z,101079.06
2023-01-07T06:43:08.436Z,101080.97
2023-01-07T06:45:34.903Z,101087.19
2023-01-07T06:48:01.580Z,101081.25
2023-01-07T06:50:27.946Z,101078.41
2023-01-07T06:52:54.382Z,101078.50
2023-01-07T06:55:20.727Z,101075.16
2023-01-07T06:57:47.130Z,101075.72
2023-01-07T07:00:14.207Z,101070.78
2023-01-07T07:02:40.705Z,101069.72
2023-01-07T07:05:07.454Z,101078.88
2023-01-07T07:07:34.064Z,101070.09
2023-01-07T07:10:04.450Z,101071.06
2023-01-07T07:12:30.803Z,101075.44
2023-01-07T07:14:57.139Z,101070.00
2023-01-07T07:17:23.521Z,101068.09
2023-01-07T07:19:49.899Z,101072.56
2023-01-07T07:22:16.286Z,101065.22
2023-01-07T07:24:42.692Z,101066.16
2023-01-07T07:27:09.106Z,101065.13
2023-01-07T07:29:35.454Z,101055.19
2023-01-07T07:32:01.897Z,101052.22
2023-01-07T07:34:28.305Z,101052.22
2023-01-07T07:36:54.653Z,101053.28
2023-01-07T07:39:21.148Z,101057.50
2023-01-07T07:41:47.501Z,101050.88
2023-01-07T07:44:16.972Z,101053.38
2023-01-07T07:46:43.401Z,101046.78
2023-01-07T07:49:11.272Z,101042.56
2023-01-07T07:51:38.048Z,101041.91
2023-01-07T07:54:04.532Z,101042.69
2023-01-07T07:56:30.986Z,101033.69
2023-01-07T07:58:57.377Z,101026.50
2023-01-07T08:01:23.830Z,101026.41
2023-01-07T08:03:50.316Z,101026.97
2023-01-07T08:06:16.669Z,101013.09
2023-01-07T08:08:43.111Z,101006.22
2023-01-07T08:11:09.701Z,101017.69
2023-01-07T08:13:36.147Z,101010.41
2023-01-07T08:16:02.626Z,101014.91
2023-01-07T08:18:29.023Z,101012.34
2023-01-07T08:20:55.705Z,101012.25
2023-01-07T08:23:22.226Z,101018.16
2023-01-07T08:25:48.840Z,101010.03
2023-01-07T08:28:15.247Z,101014.13
2023-01-07T08:30:42.495Z,101013.34
2023-01-07T08:33:09.164Z,101017.09
2023-01-07T08:35:35.725Z,101007.16
2023-01-07T08:38:07.830Z,101000.81
2023-01-07T08:40:35.499Z,101004.72
2023-01-07T08:43:04.054Z,100996.63
2023-01-07T08:45:31.226Z,100997.38
2023-01-07T08:47:57.844Z,100992.88
2023-01-07T08:50:29.717Z,100989.22
2023-01-07T08:52:56.381Z,100996.63
2023-01-07T08:55:22.982Z,100987.91
2023-01-07T08:57:49.778Z,100992.88
2023-01-07T09:00:17.688Z,100994.41
2023-01-07T09:02:44.818Z,100996.13
2023-01-07T09:05:11.555Z,100994.56
2023-01-07T09:07:38.014Z,100991.72
2023-01-07T09:10:05.437Z,100987.31
2023-01-07T09:12:32.104Z,100991.81
2023-01-07T09:14:58.535Z,100989.88
2023-01-07T09:17:24.924Z,100995.06
2023-01-07T09:19:51.253Z,100987.13
2023-01-07T09:22:17.601Z,100985.03
2023-01-07T09:24:44.910Z,100984.91
2023-01-07T09:27:12.475Z,100989.41
2023-01-07T09:29:38.840Z,100981.69
2023-01-07T09:32:05.277Z,100970.97
2023-01-07T09:34:32.070Z,100965.63
2023-01-07T09:36:58.502Z,100971.53
2023-01-07T09:39:24.921Z,100968.84
2023-01-07T09:42:03.572Z,100969.06
2023-01-07T09:44:41.698Z,100966.38
2023-01-07T09:47:09.655Z,100969.59
2023-01-07T09:49:36.349Z,100964.47
2023-01-07T09:52:11.022Z,100960.06
2023-01-07T09:54:39.343Z,100964.47
2023-01-07T09:57:05.993Z,100963.41
2023-01-07T09:59:32.764Z,100956.22
2023-01-07T10:02:37.827Z,100956.22
2023-01-07T10:05:38.331Z,100953.75
2023-01-07T10:08:37.217Z,100947.72
2023-01-07T10:11:33.325Z,100949.25
2023-01-07T10:14:37.256Z,100945.50
2023-01-07T10:17:26.589Z,100943.16
2023-01-07T10:20:07.120Z,100938.00
2023-01-07T10:22:48.854Z,100934.19
2023-01-07T10:25:20.347Z,100933.63
2023-01-07T10:27:48.427Z,100930.53
2023-01-07T10:30:30.948Z,100925.47
2023-01-07T10:33:17.820Z,100921.53
2023-01-07T10:35:48.790Z,100922.41
2023-01-07T10:38:19.565Z,100914.81
2023-01-07T10:40:58.011Z,100910.84
2023-01-07T10:43:46.048Z,100904.00
2023-01-07T10:46:47.223Z,100892.19
2023-01-07T10:49:44.575Z,100886.81
2023-01-07T10:52:19.863Z,100878.66
2023-01-07T10:55:05.105Z,100880.59
2023-01-07T10:57:33.473Z,100862.22
2023-01-07T11:00:02.592Z,100859.75
2023-01-07T11:02:29.746Z,100845.03
2023-01-07T11:04:57.184Z,100850.59
2023-01-07T11:07:40.780Z,100836.44
2023-01-07T11:10:12.503Z,100827.06
2023-01-07T11:12:51.951Z,100820.50
2023-01-07T11:15:39.759Z,100817.00
2023-01-07T11:18:31.208Z,100813.13
2023-01-07T11:20:59.356Z,100802.50
2023-01-07T11:23:38.535Z,100810.81
2023-01-07T11:26:16.061Z,100792.00
2023-01-07T11:29:13.587Z,100776.06
2023-01-07T11:31:50.587Z,100785.88
2023-01-07T11:34:23.954Z,100778.44
2023-01-07T11:36:51.093Z,100778.25
2023-01-07T11:39:29.675Z,100762.50
2023-01-07T11:41:57.877Z,100751.63
2023-01-07T11:44:25.164Z,100750.03
2023-01-07T11:46:52.620Z,100746.50
2023-01-07T11:49:23.667Z,100735.78
2023-01-07T11:51:50.242Z,100739.66
2023-01-07T11:54:25.536Z,100735.38
2023-01-07T11:56:54.157Z,100724.41
2023-01-07T11:59:21.322Z,100721.03
2023-01-07T12:01:53.792Z,100709.06
2023-01-07T12:04:26.555Z,100708.06
2023-01-07T12:06:56.836Z,100710.97
2023-01-07T12:09:35.551Z,100700.25
2023-01-07T12:12:34.365Z,100702.69
2023-01-07T12:15:04.693Z,100693.91
2023-01-07T12:17:34.353Z,100691.22
2023-01-07T12:20:12.755Z,100676.19
2023-01-07T12:23:07.771Z,100687.03
2023-01-07T12:26:15.007Z,100679.34
2023-01-07T12:28:50.349Z,100673.72
2023-01-07T12:31:50.167Z,100658.00
2023-01-07T12:34:29.608Z,100646.09
2023-01-07T12:37:03.899Z,100643.41
2023-01-07T12:39:39.233Z,100643.28
2023-01-07T12:44:53.950Z,100643.00
2023-01-07T12:48:02.441Z,100643.41
2023-01-07T12:50:35.804Z,100644.19
2023-01-07T12:53:07.481Z,100639.31
2023-01-07T12:55:36.973Z,100632.53
2023-01-07T12:58:15.110Z,100630.94
2023-01-07T13:00:50.710Z,100624.19
2023-01-07T13:03:28.485Z,100616.91
2023-01-07T13:06:01.581Z,100604.13
2023-01-07T13:08:56.568Z,100601.31
2023-01-07T13:11:58.518Z,100598.16
2023-01-07T13:14:33.247Z,100603.38
2023-01-07T13:17:13.426Z,100613.84
2023-01-07T13:19:39.763Z,100590.09
2023-01-07T13:22:15.049Z,100596.03
2023-01-07T13:24:56.939Z,100583.59
2023-01-07T13:27:48.400Z,100587.84
2023-01-07T13:30:34.256Z,100589.59
2023-01-07T13:33:09.815Z,100576.06
2023-01-07T13:35:47.493Z,100568.88
2023-01-07T13:38:33.454Z,100572.03
2023-01-07T13:41:49.121Z,100555.94
2023-01-07T13:44:35.889Z,100555.69
2023-01-07T13:47:04.973Z,100556.38
2023-01-07T13:49:33.592Z,100540.75
2023-01-07T13:52:18.216Z,100542.34
2023-01-07T13:54:47.590Z,100532.03
2023-01-07T13:57:23.253Z,100535.53
2023-01-07T13:59:53.009Z,100534.56
2023-01-07T14:02:22.493Z,100537.13
2023-01-07T14:05:27.173Z,100539.22
2023-01-07T14:08:00.011Z,100541.66
2023-01-07T14:10:30.872Z,100535.19
2023-01-07T14:13:15.665Z,100531.88
2023-01-07T14:16:07.510Z,100517.38
2023-01-07T14:18:59.784Z,100513.00
2023-01-07T14:21:43.431Z,100520.31
2023-01-07T14:24:26.843Z,100511.53
2023-01-07T14:27:23.496Z,100503.75
2023-01-07T14:29:54.294Z,100495.34
2023-01-07T14:32:33.002Z,100498.72
2023-01-07T14:35:20.062Z,100481.81
2023-01-07T14:37:46.931Z,100490.41
2023-01-07T14:40:25.474Z,100485.59
2023-01-07T14:42:53.664Z,100483.72
2023-01-07T14:45:41.814Z,100481.53
2023-01-07T14:48:08.100Z,100482.22
2023-01-07T14:50:46.959Z,100474.34
2023-01-07T14:53:16.364Z,100475.28
2023-01-07T14:55:56.985Z,100484.75
2023-01-07T14:59:08.043Z,100478.31
2023-01-07T15:01:54.703Z,100481.47
2023-01-07T15:04:28.404Z,100466.50
2023-01-07T15:07:00.413Z,100466.16
2023-01-07T15:10:10.391Z,100468.69
2023-01-07T15:13:13.468Z,100459.06
2023-01-07T15:16:02.350Z,100452.97
2023-01-07T15:18:31.070Z,100444.78
2023-01-07T15:21:35.286Z,100457.53
2023-01-07T15:24:17.409Z,100453.25
2023-01-07T15:27:14.533Z,100457.22
2023-01-07T15:29:40.814Z,100459.75
2023-01-07T15:32:20.128Z,100451.81
2023-01-07T15:34:47.098Z,100456.72
2023-01-07T15:37:15.385Z,100447.94
2023-01-07T15:39:49.393Z,100443.28
2023-01-07T15:42:20.185Z,100438.88
2023-01-07T15:44:53.122Z,100440.28
2023-01-07T15:47:52.199Z,100437.75
2023-01-07T15:50:18.507Z,100433.41
2023-01-07T15:52:50.362Z,100434.16
2023-01-07T15:55:25.841Z,100415.78
2023-01-07T15:57:59.867Z,100403.72
2023-01-07T16:00:26.457Z,100403.41
2023-01-07T16:02:53.066Z,100407.00
2023-01-07T16:05:19.668Z,100397.91
2023-01-07T16:07:54.947Z,100402.91
2023-01-07T16:10:24.082Z,100393.53
2023-01-07T16:12:53.487Z,100387.22
2023-01-07T16:15:31.832Z,100385.94
2023-01-07T16:18:08.478Z,100386.09
2023-01-07T16:20:38.419Z,100380.00
2023-01-07T16:23:15.549Z,100383.75
2023-01-07T16:25:48.784Z,100381.09
2023-01-07T16:28:26.068Z,100384.09
2023-01-07T16:30:54.143Z,100375.66
2023-01-07T16:33:24.079Z,100383.00
2023-01-07T16:35:53.690Z,100381.50
2023-01-07T16:38:20.889Z,100374.47
2023-01-07T16:40:48.145Z,100377.84
2023-01-07T16:43:43.260Z,100374.56
2023-01-07T16:46:27.298Z,100372.66
2023-01-07T16:49:19.659Z,100376.41
2023-01-07T16:52:03.195Z,100367.88
2023-01-07T16:54:32.153Z,100356.75
2023-01-07T16:57:16.762Z,100360.19
2023-01-07T16:59:53.698Z,100361.66
2023-01-07T17:02:34.144Z,100364.03
2023-01-07T17:05:19.912Z,100366.16
2023-01-07T17:08:00.328Z,100361.78
2023-01-07T17:10:30.108Z,100368.94
2023-01-07T17:13:02.007Z,100362.38
2023-01-07T17:15:31.519Z,100339.81
2023-01-07T17:18:13.135Z,100346.66
2023-01-07T17:20:50.664Z,100356.03
2023-01-07T17:23:41.291Z,100333.78
2023-01-07T17:26:10.770Z,100332.19
2023-01-07T17:28:46.593Z,100344.25
2023-01-07T17:31:12.992Z,100341.34
2023-01-07T17:33:39.517Z,100349.59
2023-01-07T17:36:06.309Z,100338.16
2023-01-07T17:38:32.751Z,100348.44
2023-01-07T17:40:59.193Z,100348.28
2023-01-07T17:43:35.773Z,100346.81
2023-01-07T17:46:10.670Z,100336.63
2023-01-07T17:48:37.403Z,100329.28
2023-01-07T17:51:05.320Z,100331.53
2023-01-07T17:53:34.021Z,100332.22
2023-01-07T17:56:01.378Z,100329.34
2023-01-07T17:58:33.224Z,100328.09
2023-01-07T18:01:02.570Z,100338.28
2023-01-07T18:03:29.156Z,100335.03
2023-01-07T18:05:55.531Z,100330.78
2023-01-07T18:08:21.904Z,100323.09
2023-01-07T18:11:09.581Z,100329.69
2023-01-07T18:13:36.175Z,100330.53
2023-01-07T18:16:03.088Z,100328.09
2023-01-07T18:18:29.464Z,100323.69
2023-01-07T18:20:57.119Z,100319.34
2023-01-07T18:23:24.535Z,100318.59
2023-01-07T18:25:51.348Z,100313.34
2023-01-07T18:28:17.861Z,100315.56
2023-01-07T18:30:44.497Z,100302.31
2023-01-07T18:33:11.898Z,100296.00
2023-01-07T18:35:41.738Z,100292.09
2023-01-07T18:38:15.608Z,100289.06
2023-01-07T18:40:42.598Z,100281.91
2023-01-07T18:43:16.886Z,100275.47
2023-01-07T18:45:45.224Z,100276.31
2023-01-07T18:48:13.345Z,100267.34
2023-01-07T18:50:43.917Z,100251.66
2023-01-07T18:53:10.878Z,100255.31
2023-01-07T18:55:38.858Z,100264.41
2023-01-07T18:58:05.840Z,100261.84
2023-01-07T19:00:32.845Z,100258.81
2023-01-07T19:02:59.652Z,100251.53
2023-01-07T19:05:27.650Z,100260.53
2023-01-07T19:07:55.271Z,100251.44
2023-01-07T19:10:23.012Z,100265.16
2023-01-07T19:12:50.251Z,100266.00
2023-01-07T19:15:16.983Z,100259.81
2023-01-07T19:17:43.388Z,100261.25
2023-01-07T19:20:10.493Z,100259.56
2023-01-07T19:22:36.812Z,100246.81
2023-01-07T19:25:03.271Z,100241.56
2023-01-07T19:27:29.638Z,100231.84
2023-01-07T19:29:55.958Z,100234.28
2023-01-07T19:32:22.276Z,100244.25
2023-01-07T19:34:49.628Z,100243.28
2023-01-07T19:37:15.990Z,100230.88
2023-01-07T19:39:42.375Z,100237.19
2023-01-07T19:42:09.838Z,100230.91
2023-01-07T19:44:38.243Z,100237.22
2023-01-07T19:47:04.777Z,100221.06
2023-01-07T19:49:31.135Z,100220.34
2023-01-07T19:51:57.610Z,100235.78
2023-01-07T19:54:24.035Z,100225.09
2023-01-07T19:56:50.389Z,100231.53
2023-01-07T19:59:16.721Z,100223.38
2023-01-07T20:01:44.972Z,100209.88
2023-01-07T20:04:11.533Z,100212.44
2023-01-07T20:06:41.188Z,100200.66
2023-01-07T20:09:10.751Z,100203.72
2023-01-07T20:11:38.415Z,100206.50
2023-01-07T20:14:05.358Z,100218.06
2023-01-07T20:16:31.820Z,100222.81
2023-01-07T20:18:58.205Z,100213.09
2023-01-07T20:21:25.729Z,100217.34
2023-01-07T20:23:52.804Z,100217.34
2023-01-07T20:26:21.979Z,100218.31
2023-01-07T20:28:49.039Z,100224.16
2023-01-07T20:31:18.011Z,100217.94
2023-01-07T20:33:45.304Z,100220.03
2023-01-07T20:36:14.573Z,100225.97
2023-01-07T20:38:41.833Z,100217.09
2023-01-07T20:41:11.973Z,100210.06
2023-01-07T20:43:38.368Z,100224.13
2023-01-07T20:46:06.689Z,100235.25
2023-01-07T20:48:34.203Z,100234.03
2023-01-07T20:51:08.004Z,100229.50
2023-01-07T20:53:35.934Z,100219.72
2023-01-07T20:56:03.693Z,100216.19
2023-01-07T20:58:31.497Z,100233.09
2023-01-07T21:00:58.078Z,100215.69
2023-01-07T21:03:24.574Z,100227.72
2023-01-07T21:05:55.812Z,100228.09
2023-01-07T21:08:22.324Z,100216.13
2023-01-07T21:10:48.704Z,100220.50
2023-01-07T21:13:15.139Z,100214.19
2023-01-07T21:15:41.549Z,100209.31
2023-01-07T21:18:07.923Z,100216.38
2023-01-07T21:20:34.313Z,100208.47
2023-01-07T21:23:00.633Z,100205.53
2023-01-07T21:25:27.152Z,100200.19
2023-01-07T21:27:53.468Z,100191.63
2023-01-07T21:30:20.112Z,100181.81
2023-01-07T21:32:47.331Z,100195.06
2023-01-07T21:35:14.169Z,100200.63
2023-01-07T21:37:40.682Z,100201.78
2023-01-07T21:40:07.578Z,100196.63
2023-01-07T21:42:37.104Z,100185.94
2023-01-07T21:45:05.184Z,100189.84
2023-01-07T21:47:33.710Z,100183.25
2023-01-07T21:50:00.067Z,100199.94
2023-01-07T21:52:28.920Z,100201.25
2023-01-07T21:54:56.095Z,100198.72
2023-01-07T21:57:23.637Z,100199.06
2023-01-07T21:59:49.963Z,100195.19
2023-01-07T22:02:18.555Z,100188.84
2023-01-07T22:04:46.074Z,100190.78
2023-01-07T22:07:17.615Z,100184.50
2023-01-07T22:09:44.876Z,100188.84
2023-01-07T22:12:12.322Z,100196.13
2023-01-07T22:14:38.979Z,100208.66
2023-01-07T22:17:06.280Z,100192.13
2023-01-07T22:19:32.639Z,100197.06
2023-01-07T22:21:59.412Z,100198.75
2023-01-07T22:24:25.831Z,100194.34
2023-01-07T22:26:52.709Z,100193.41
2023-01-07T22:29:19.058Z,100188.41
2023-01-07T22:31:48.725Z,100191.69
2023-01-07T22:34:15.156Z,100191.81
2023-01-07T22:36:52.814Z,100197.91
2023-01-07T22:39:31.541Z,100209.44
2023-01-07T22:42:03.316Z,100204.19
2023-01-07T22:44:36.518Z,100192.66
2023-01-07T22:47:05.048Z,100195.31
2023-01-07T22:49:32.820Z,100199.25
2023-01-07T22:51:59.369Z,100187.06
2023-01-07T22:54:26.194Z,100192.19
2023-01-07T22:56:52.874Z,100181.88
2023-01-07T22:59:19.220Z,100173.50
2023-01-07T23:01:45.615Z,100176.69
2023-01-07T23:04:12.313Z,100180.00
2023-01-07T23:06:38.825Z,100178.56
2023-01-07T23:09:05.675Z,100175.03
2023-01-07T23:11:48.280Z,100172.38
2023-01-07T23:14:19.993Z,100159.47
2023-01-07T23:16:46.705Z,100154.75
2023-01-07T23:19:13.848Z,100143.97
2023-01-07T23:21:43.183Z,100141.53
2023-01-07T23:24:10.635Z,100138.09
2023-01-07T23:26:37.445Z,100142.00
2023-01-07T23:29:04.383Z,100135.78
2023-01-07T23:31:33.225Z,100143.56
2023-01-07T23:34:00.561Z,100144.56
2023-01-07T23:36:27.510Z,100136.53
2023-01-07T23:38:53.925Z,100141.63
2023-01-07T23:41:20.433Z,100133.84
2023-01-07T23:43:47.760Z,100140.19
2023-01-07T23:46:14.158Z,100139.31
2023-01-07T23:48:40.626Z,100135.69
2023-01-07T23:51:09.984Z,100149.06
2023-01-07T23:53:36.522Z,100148.06
2023-01-07T23:56:03.809Z,100151.22
2023-01-07T23:58:30.746Z,100153.19
